Natal, Brazil
Current Conditions -  °F | °C
As of 1:00 AM on Saturday 25 Oct 2014 (Local Time) from SBNT Reporting Station
Few Clouds Few Clouds  
Wind Chill: 25°   Ceiling: Unl
Heat Index: 26°   Visibility: 6mi
Dew Point: 20°   Wind: 12mph
Humidity: 74%   Direction: 120°ESE
Pressure: 29.91"   Gusts: NA
Location:  5.8°S, 35.22°W
Report Text: SBNT 250400Z 12010KT 9999 FEW023 25/20 Q1013
Loading
Personal Weather Stations






























Interactive Weather Map
Tropical Storm Tracking
New forecast layout! Learn more

10-Day Weather Forecast

Advertisements
Track Severe Weather on mobile